• Join FlightAware (Why Join?)
  • Login
  • US Flag 
07:27PM EDT


 

Airport Tracker/Info


-or-


 

Live Flight TrackerFlight Track Log ✈ SWA276 ✈ 17-Apr-2013 ✈ KLAS - KPIT

Flight Track Log - Related Links

Times and Time Zones

All times are in EDT time to prevent confusion due to time zone crossing. See the SWA276 flight status page for this flight to view local times or setup timezone preferences in your user account.

Time Position Orientation Groundspeed Altitude Reporting Facility
EDT Latitude Longitude Course Direction KTS MPH feet Rate Location/Type
06:10PM 36.0758 -115.1178 89° East 162 186 3,500  Level Los Angeles Center
06:11PM 36.0764 -115.0697 89° East 195 224 4,800 1,680 Climbing Los Angeles Center
06:12PM 36.0769 -115.0339 89° East 195 224 5,500 1,860 Climbing Los Angeles Center
06:12PM 36.0764 -114.9817 91° East 267 307 6,700 2,640 Climbing Los Angeles Center
06:13PM 36.0767 -114.9389 90° East 265 305 8,300 3,060 Climbing Los Angeles Center
06:13PM 36.0839 -114.9075 74° East 279 321 9,200 2,580 Climbing Los Angeles Center
06:14PM 36.0939 -114.8431 79° East 284 327 11,000 3,000 Climbing Los Angeles Center
06:14PM 36.1006 -114.8061 77° East 294 338 12,300 3,060 Climbing Los Angeles Center
06:15PM 36.1097 -114.7414 80° East 298 343 14,200 2,340 Climbing Los Angeles Center
06:16PM 36.1375 -114.6433 71° East 302 348 16,500 1,800 Climbing Los Angeles Center
06:17PM 36.1467 -114.5256 84° East 341 392 18,000 1,740 Climbing Los Angeles Center
06:18PM 36.1725 -114.3692 78° East 382 440 20,100 1,980 Climbing Los Angeles Center
06:19PM 36.1947 -114.2297 79° East 409 471 22,100 1,800 Climbing Los Angeles Center
06:20PM 36.2128 -114.0844 81° East 423 487 23,900 1,620 Climbing Los Angeles Center
06:21PM 36.2294 -113.9356 82° East 435 501 25,500 1,380 Climbing Los Angeles Center
06:22PM 36.2475 -113.7828 82° East 446 513 26,800 960 Climbing Los Angeles Center
06:23PM 36.2708 -113.5892 81° East 471 542 27,600 900 Climbing Los Angeles Center
06:24PM 36.2894 -113.4203 82° East 490 564 28,700 1,140 Climbing Los Angeles Center
06:25PM 36.3097 -113.2492 82° East 500 575 30,000 1,200 Climbing Los Angeles Center
06:26PM 36.3567 -113.1028 68° East 502 578 31,200 1,080 Climbing Los Angeles Center
06:27PM 36.4261 -112.9175 65° Northeast 498 573 32,300 960 Climbing Los Angeles Center
06:28PM 36.4850 -112.7594 65° Northeast 504 580 33,200 960 Climbing Los Angeles Center
06:29PM 36.5433 -112.5992 66° East 510 587 34,300 840 Climbing Los Angeles Center
06:30PM 36.6006 -112.4419 66° East 504 580 35,000 300 Climbing Los Angeles Center
06:31PM 36.6572 -112.2850 66° East 501 577 35,000  Level Los Angeles Center
06:32PM 36.7264 -112.0953 65° Northeast 503 579 35,000  Level Los Angeles Center
06:33PM 36.7511 -112.0322 64° Northeast 505 581 35,000  Level Denver Center
06:34PM 36.8081 -111.8739 66° East 504 580 35,000  Level Denver Center
06:35PM 36.8647 -111.7167 66° East 501 577 35,000  Level Denver Center
06:36PM 36.9203 -111.5575 66° East 502 578 35,000  Level Denver Center
06:37PM 36.9778 -111.3975 66° East 505 581 35,000  Level Denver Center
06:38PM 37.0422 -111.2067 67° East 502 578 35,000  Level Denver Center
06:39PM 37.0989 -111.0444 66° East 510 587 35,000  Level Denver Center
06:40PM 37.1550 -110.8822 66° East 511 588 35,000  Level Denver Center
06:41PM 37.2111 -110.7192 67° East 511 588 35,000  Level Denver Center
06:42PM 37.2681 -110.5558 66° East 513 590 35,000  Level Denver Center
06:43PM 37.3228 -110.3936 67° East 509 586 35,000  Level Denver Center
06:44PM 37.3775 -110.2300 67° East 509 586 35,000  Level Denver Center
06:45PM 37.4419 -110.0403 67° East 508 585 35,000  Level Denver Center
06:46PM 37.4950 -109.8819 67° East 511 588 35,000  Level Denver Center
06:47PM 37.5469 -109.7250 67° East 508 585 35,000  Level Denver Center
06:48PM 37.6083 -109.5422 67° East 506 582 35,000  Level Denver Center
06:49PM 37.6606 -109.3836 67° East 509 586 35,000  Level Denver Center
06:50PM 37.7211 -109.2003 67° East 508 585 35,000  Level Denver Center
06:51PM 37.7728 -109.0414 68° East 509 586 35,000  Level Denver Center
06:52PM 37.8481 -108.8331 65° Northeast 511 588 35,000  Level Denver Center
06:53PM 37.9136 -108.6814 61° Northeast 513 590 35,000  Level Denver Center
06:54PM 37.9786 -108.5300 61° Northeast 512 589 35,000  Level Denver Center
06:55PM 38.0550 -108.3575 61° Northeast 508 585 35,000  Level Denver Center
06:56PM 38.1194 -108.2064 62° Northeast 510 587 35,000  Level Denver Center
06:58PM 38.1944 -108.0308 61° Northeast 507 583 35,000  Level Denver Center
06:59PM 38.2597 -107.8775 61° Northeast 512 589 35,000  Level Denver Center
07:00PM 38.3322 -107.7033 62° Northeast 504 580 35,000  Level Denver Center
07:01PM 38.3972 -107.5506 61° Northeast 511 588 35,000  Level Denver Center
07:02PM 38.4600 -107.3986 62° Northeast 508 585 35,000  Level Denver Center
07:03PM 38.5347 -107.2208 62° Northeast 511 588 35,000  Level Denver Center
07:04PM 38.5992 -107.0650 62° Northeast 515 593 35,000  Level Denver Center
07:05PM 38.6650 -106.9053 62° Northeast 511 588 35,000  Level Denver Center
07:06PM 38.7319 -106.7406 62° Northeast 522 601 35,000  Level Denver Center
07:07PM 38.7969 -106.5786 63° Northeast 514 592 35,000  Level Denver Center
07:08PM 38.8619 -106.4175 63° Northeast 513 590 35,000  Level Denver Center
07:09PM 38.9244 -106.2628 63° Northeast 516 594 35,000  Level Denver Center
07:10PM 39.0056 -106.0606 63° Northeast 516 594 35,000  Level Denver Center
07:11PM 39.0719 -105.8933 63° Northeast 519 597 35,000  Level Denver Center
07:12PM 39.1375 -105.7267 63° Northeast 519 597 35,000  Level Denver Center
07:13PM 39.2033 -105.5581 63° Northeast 521 600 35,000  Level Denver Center
07:14PM 39.2725 -105.3886 62° Northeast 530 610 35,000  Level Denver Center
07:15PM 39.3369 -105.2203 64° Northeast 518 596 35,000  Level Denver Center
07:16PM 39.4022 -105.0517 63° Northeast 516 594 35,000  Level Denver Center
07:17PM 39.4664 -104.8850 63° Northeast 515 593 35,000  Level Denver Center
07:18PM 39.5308 -104.7181 63° Northeast 520 598 35,000  Level Denver Center
07:19PM 39.6025 -104.5264 64° Northeast 527 606 35,000  Level Denver Center
07:20PM 39.6667 -104.3558 64° Northeast 526 605 35,000  Level Denver Center
07:21PM 39.7292 -104.1894 64° Northeast 510 587 35,000  Level Denver Center
07:22PM 39.7917 -104.0194 64° Northeast 516 594 35,000  Level Denver Center
07:23PM 39.8542 -103.8514 64° Northeast 511 588 35,000  Level Denver Center
07:24PM 39.9178 -103.6839 64° Northeast 503 579 35,000  Level Denver Center
07:25PM 39.9803 -103.5142 64° Northeast 513 590 35,000  Level Denver Center
07:26PM 40.0414 -103.3436 65° Northeast 516 594 35,000  Level Denver Center
07:27PM 40.1050 -103.1728 64° Northeast 518 596 35,000  Level Denver Center
07:28PM 40.1656 -103.0003 65° Northeast 519 597 35,000  Level Denver Center
07:29PM 40.2247 -102.8358 65° Northeast 498 573 35,000  Level Denver Center
07:30PM 40.2897 -102.6553 65° Northeast 498 573 35,000  Level Denver Center
07:31PM 40.3464 -102.4964 65° Northeast 503 579 35,000  Level Denver Center
07:32PM 40.4131 -102.3069 65° Northeast 511 588 35,000  Level Denver Center
07:33PM 40.4686 -102.1453 66° East 511 588 35,000  Level Denver Center
07:34PM 40.5275 -101.9797 65° Northeast 521 600 35,000  Level Denver Center
07:35PM 40.5947 -101.7853 65° Northeast 524 603 35,000  Level Denver Center
07:36PM 40.6506 -101.6231 66° East 512 589 35,000  Level Denver Center
07:37PM 40.7153 -101.4328 66° East 510 587 35,000  Level Denver Center
07:38PM 40.7697 -101.2694 66° East 509 586 35,000  Level Denver Center
07:39PM 40.8258 -101.1053 66° East 512 589 35,000  Level Denver Center
07:40PM 40.8917 -100.9117 66° East 512 589 35,000  Level Denver Center
07:41PM 40.9489 -100.7411 66° East 514 592 35,000  Level Denver Center
07:42PM 41.0050 -100.5714 66° East 517 595 35,000  Level Denver Center
07:43PM 41.0686 -100.3756 67° East 516 594 35,000  Level Denver Center
07:44PM 41.1144 -100.2369 66° East 515 593 35,000  Level Denver Center
07:46PM 41.1772 -100.0433 67° East 513 590 35,000  Level Denver Center
07:47PM 41.2386 -99.8519 67° East 507 583 35,000  Level Denver Center
07:48PM 41.2919 -99.6878 67° East 505 581 35,000  Level Denver Center
07:49PM 41.3350 -99.5533 67° East 500 575 35,000  Level Denver Center
07:50PM 41.3939 -99.3667 67° East 496 571 35,000  Level Denver Center
07:51PM 41.4578 -99.1642 67° East 491 565 35,000  Level Denver Center
07:51PM 41.4972 -99.0431 66° East 488 562 35,000  Level Minneapolis Center
07:52PM 41.5481 -98.8786 68° East 484 557 35,000  Level Minneapolis Center
07:53PM 41.5933 -98.7311 68° East 482 555 35,000  Level Minneapolis Center
07:54PM 41.6544 -98.5314 68° East 480 552 35,000  Level Minneapolis Center
07:55PM 41.7039 -98.3669 68° East 477 549 35,000  Level Minneapolis Center
07:56PM 41.7544 -98.2017 68° East 477 549 35,000  Level Minneapolis Center
07:58PM 41.7989 -98.0550 68° East 477 549 35,000  Level Minneapolis Center
07:59PM 41.8578 -97.8583 68° East 475 547 35,000  Level Minneapolis Center
08:00PM 41.9067 -97.6969 68° East 470 541 35,000  Level Minneapolis Center
08:01PM 41.9539 -97.5361 68° East 465 535 35,000  Level Minneapolis Center
08:02PM 42.0006 -97.3747 69° East 463 533 35,000  Level Minneapolis Center
08:03PM 42.0497 -97.2100 68° East 470 541 35,000  Level Minneapolis Center
08:04PM 42.0975 -97.0447 69° East 473 544 35,000  Level Minneapolis Center
08:05PM 42.1442 -96.8794 69° East 472 543 35,000  Level Minneapolis Center
08:06PM 42.1928 -96.7131 68° East 474 545 35,000  Level Minneapolis Center
08:07PM 42.2397 -96.5447 69° East 476 548 35,000 420 Level Minneapolis Center
08:08PM 42.2978 -96.3419 69° East 480 552 35,900 780 Climbing Minneapolis Center
08:09PM 42.3444 -96.1725 70° East 481 554 36,700 480 Climbing Minneapolis Center
08:10PM 42.3925 -96.0014 69° East 483 556 37,000 120 Climbing Minneapolis Center
08:11PM 42.4406 -95.8300 69° East 487 560 37,000  Level Minneapolis Center
08:12PM 42.4872 -95.6578 70° East 487 560 37,000  Level Minneapolis Center
08:13PM 42.5344 -95.4858 70° East 486 559 37,000  Level Minneapolis Center
08:14PM 42.5875 -95.3153 67° East 488 562 37,000  Level Minneapolis Center
08:15PM 42.6406 -95.1489 67° East 483 556 37,000  Level Minneapolis Center
08:16PM 42.6939 -94.9797 67° East 485 558 37,000  Level Minneapolis Center
08:17PM 42.7522 -94.7931 67° East 482 555 37,000  Level Minneapolis Center
08:18PM 42.8050 -94.6244 67° East 483 556 37,000  Level Minneapolis Center
08:19PM 42.8603 -94.4428 67° East 499 574 37,000  Level Minneapolis Center
08:20PM 42.9122 -94.2731 67° East 492 566 37,000  Level Minneapolis Center
08:21PM 42.9628 -94.1011 68° East 492 566 37,000  Level Minneapolis Center
08:22PM 43.0269 -93.8956 67° East 493 567 37,000  Level Minneapolis Center
08:23PM 43.0775 -93.7222 68° East 494 568 37,000  Level Minneapolis Center
08:24PM 43.1292 -93.5492 68° East 495 570 37,000  Level Minneapolis Center
08:25PM 43.1803 -93.3747 68° East 497 572 37,000  Level Minneapolis Center
08:26PM 43.2322 -93.1969 68° East 503 579 37,000  Level Minneapolis Center
08:27PM 43.2856 -93.0167 68° East 509 586 37,000  Level Minneapolis Center
08:28PM 43.3472 -92.8003 69° East 510 587 37,000  Level Minneapolis Center
08:29PM 43.4000 -92.6189 68° East 513 590 37,000  Level Minneapolis Center
08:30PM 43.4514 -92.4356 69° East 515 593 37,000  Level Minneapolis Center
08:31PM 43.5044 -92.2517 68° East 518 596 37,000  Level Minneapolis Center
08:33PM 43.5581 -92.0619 69° East 529 609 37,000  Level Minneapolis Center
08:34PM 43.6097 -91.8750 69° East 525 604 37,000  Level Minneapolis Center
08:35PM 43.6722 -91.6486 69° East 527 606 37,000  Level Minneapolis Center
08:36PM 43.7239 -91.4617 69° East 525 604 37,000  Level Minneapolis Center
08:37PM 43.7747 -91.2750 69° East 523 602 37,000  Level Minneapolis Center
08:37PM 43.8158 -91.1247 69° East 523 602 37,000  Level Minneapolis Center
08:39PM 43.8656 -90.9372 70° East 523 602 37,000  Level Minneapolis Center
08:39PM 43.9053 -90.7878 70° East 521 600 37,000  Level Minneapolis Center
08:40PM 43.9272 -90.5600 82° East 497 572 37,000  Level Minneapolis Center
08:41PM 43.9050 -90.3872 100° East 486 559 37,000  Level Minneapolis Center
08:43PM 43.8781 -90.1381 98° East 490 564 37,000  Level Minneapolis Center
08:43PM 43.8611 -89.9814 98° East 494 568 37,000  Level Minneapolis Center
08:45PM 43.8344 -89.7631 100° East 493 567 37,000  Level Minneapolis Center
08:46PM 43.8161 -89.6069 99° East 494 568 37,000  Level Minneapolis Center
08:47PM 43.7936 -89.4183 99° East 494 568 37,000  Level Minneapolis Center
08:48PM 43.7639 -89.1681 99° East 493 567 37,000  Level Minneapolis Center
08:49PM 43.7442 -89.0100 100° East 497 572 37,000  Level Minneapolis Center
08:50PM 43.7208 -88.8219 100° East 496 571 37,000  Level Minneapolis Center
08:51PM 43.6944 -88.6008 99° East 495 570 37,000  Level Minneapolis Center
08:52PM 43.6742 -88.4408 100° East 497 572 37,000  Level Minneapolis Center
08:53PM 43.6489 -88.2483 100° East 502 578 37,000  Level Minneapolis Center
08:54PM 43.6231 -88.0586 101° East 499 574 37,000  Level Minneapolis Center
08:54PM 43.6156 -87.9950 99° East 499 574 37,000  Level Chicago Center
08:55PM 43.5856 -87.7722 100° East 504 580 37,000  Level Chicago Center
08:56PM 43.5594 -87.5822 101° East 504 580 37,000  Level Chicago Center
08:57PM 43.5331 -87.3933 101° East 503 579 37,000  Level Chicago Center
08:58PM 43.5067 -87.2089 101° East 502 578 37,000  Level Chicago Center
08:59PM 43.4814 -87.0200 100° East 501 577 37,000  Level Chicago Center
09:00PM 43.4536 -86.8339 102° East 499 574 37,000  Level Chicago Center
09:01PM 43.4275 -86.6469 101° East 497 572 37,000  Level Chicago Center
09:02PM 43.4003 -86.4594 101° East 497 572 37,000  Level Minneapolis Center
09:03PM 43.3731 -86.2711 101° East 498 573 37,000  Level Minneapolis Center
09:04PM 43.3450 -86.0822 101° East 503 579 37,000  Level Chicago Center
09:05PM 43.3167 -85.8914 101° East 505 581 37,000  Level Chicago Center
09:06PM 43.2869 -85.7025 102° East 502 578 37,000  Level Chicago Center
09:07PM 43.2575 -85.5133 102° East 503 579 37,000  Level Chicago Center
09:08PM 43.2217 -85.2867 102° East 505 581 37,000  Level Chicago Center
09:09PM 43.2125 -85.2383 105° East 508 585 37,000  Level Cleveland Center
09:10PM 43.1844 -85.0539 102° East 508 585 37,000  Level Cleveland Center
09:11PM 43.1519 -84.8664 103° East 503 579 37,000  Level Cleveland Center
09:12PM 43.1211 -84.6767 102° East 503 579 37,000  Level Cleveland Center
09:13PM 43.1028 -84.5367 100° East 502 578 37,000  Level Chicago Center
09:14PM 43.0619 -84.3317 105° East 490 564 37,000  Level Cleveland Center
09:15PM 43.0347 -84.1453 101° East 485 558 37,000  Level Cleveland Center
09:16PM 43.0025 -83.9617 103° East 490 564 37,000  Level Cleveland Center
09:17PM 42.9683 -83.7781 104° East 495 570 37,000  Level Cleveland Center
09:18PM 42.8758 -83.6544 136° Southeast 454 522 37,000  Level Cleveland Center
09:19PM 42.7761 -83.5561 144° Southeast 447 514 37,000  Level Cleveland Center
09:20PM 42.6725 -83.4525 144° Southeast 453 521 37,000 -180 Level Cleveland Center
09:21PM 42.5606 -83.3372 143° Southeast 459 528 36,700 -660 Descending Cleveland Center
09:22PM 42.4528 -83.2286 143° Southeast 470 541 35,700 -1,020 Descending Cleveland Center
09:23PM 42.3467 -83.1228 144° Southeast 475 547 34,700 -960 Descending Cleveland Center
09:24PM 42.2383 -83.0175 144° Southeast 480 552 33,800 -1,500 Descending Cleveland Center
09:25PM 42.1322 -82.9128 144° Southeast 486 559 31,800 -1,560 Descending Cleveland Center
09:26PM 42.0392 -82.7750 132° Southeast 486 559 30,700 -1,080 Descending Cleveland Center
09:27PM 41.9542 -82.6297 128° Southeast 486 559 29,700 -900 Descending Cleveland Center
09:28PM 41.8756 -82.4822 126° Southeast 486 559 29,000 -360 Descending Cleveland Center
09:29PM 41.7964 -82.3322 125° Southeast 491 565 29,000  Level Cleveland Center
09:30PM 41.7194 -82.1856 125° Southeast 486 559 29,000 -60 Level Cleveland Center
09:31PM 41.6503 -82.0558 125° Southeast 481 554 28,900 -600 Descending Cleveland Center
09:32PM 41.5647 -81.8986 126° Southeast 481 554 27,900 -1,080 Descending Cleveland Center
09:33PM 41.4892 -81.7583 126° Southeast 475 547 26,800 -1,620 Descending Cleveland Center
09:34PM 41.4153 -81.6158 125° Southeast 470 541 24,700 -1,680 Descending Cleveland Center
09:35PM 41.3539 -81.4986 125° Southeast 461 531 23,500 -1,560 Descending Cleveland Center
09:36PM 41.2797 -81.3706 128° Southeast 448 516 21,600 -1,980 Descending Cleveland Center
09:37PM 41.2097 -81.2483 127° Southeast 436 502 19,600 -1,920 Descending Cleveland Center
09:38PM 41.1436 -81.1264 126° Southeast 418 481 17,800 -1,980 Descending Cleveland Center
09:39PM 41.0817 -81.0072 125° Southeast 406 467 15,700 -2,100 Descending Cleveland Center
09:40PM 41.0214 -80.8969 126° Southeast 388 447 13,700 -1,980 Descending Cleveland Center
09:41PM 40.9592 -80.7894 127° Southeast 382 440 11,800 -1,800 Descending Cleveland Center
09:42PM 40.8989 -80.6931 130° Southeast 361 415 10,200 -1,200 Descending Cleveland Center
09:43PM 40.8197 -80.6325 150° Southeast 289 333 9,400 -960 Descending Cleveland Center
09:44PM 40.7531 -80.5831 151° Southeast 289 333 8,300 -1,680 Descending Cleveland Center
09:45PM 40.6883 -80.5367 151° Southeast 268 308 6,100 -1,920 Descending Cleveland Center
09:46PM 40.6300 -80.4872 147° Southeast 263 303 4,500 -1,320 Descending Cleveland Center
09:47PM 40.5819 -80.4464 147° Southeast 251 289 3,500 -780 Descending Cleveland Center
09:48PM 40.5361 -80.4083 148° Southeast 221 254 3,000 -420 Descending Cleveland Center
09:49PM 40.5047 -80.3700 137° Southeast 185 213 2,700 -300 Descending Cleveland Center
09:51PM 40.4915 -80.2329 143° Southeast  Level Estimated
09:58PM 40.4915 -80.2329 143° Southeast  Level Estimated
09:59PM 40.4915 -80.2329 143° Southeast  Level Estimated